Time;durP1;ratioP1;P1;durP2;ratioP2;P2;SDS_P1;SDS_P2;PMS_P1;PMS_P2;Temp;Humidity;BMP_temperature;BMP_pressure;BME280_temperature;BME280_humidity;BME280_pressure;Samples;Min_cycle;Max_cycle;Signal;HPM_P1;HPM_P2
2022/07/15 00:01:02;;;;;;;;;5.67;5.00;;;;;26.58;33.19;101683.88;5052590;28;45653;-72
2022/07/15 00:03:29;;;;;;;;;6.33;5.67;;;;;26.54;33.25;101684.09;5052196;28;46060;-71
2022/07/15 00:05:54;;;;;;;;;6.33;4.67;;;;;26.69;33.38;101720.06;5052490;28;45506;-70
2022/07/15 00:08:23;;;;;;;;;5.33;5.33;;;;;26.62;33.60;101720.41;5052759;28;45525;-72
2022/07/15 00:10:49;;;;;;;;;5.67;5.67;;;;;26.59;33.72;101725.03;5050552;28;45448;-72
2022/07/15 00:13:15;;;;;;;;;6.33;6.33;;;;;26.57;33.56;101711.66;5050557;28;45586;-71
2022/07/15 00:15:41;;;;;;;;;7.00;7.00;;;;;26.56;33.64;101711.78;5057626;28;45490;-74
2022/07/15 00:18:07;;;;;;;;;7.00;6.33;;;;;26.36;34.09;101710.91;5055269;28;45546;-69
2022/07/15 00:20:36;;;;;;;;;7.33;6.67;;;;;26.34;33.98;101725.31;5052127;28;46200;-71
2022/07/15 00:23:06;;;;;;;;;6.00;6.00;;;;;26.26;34.01;101716.78;5055553;28;45482;-71
2022/07/15 00:25:32;;;;;;;;;7.00;4.67;;;;;26.13;34.83;101713.84;5055556;28;45651;-70
2022/07/15 00:28:03;;;;;;;;;5.00;5.00;;;;;26.11;34.73;101718.41;5056334;28;45475;-69
2022/07/15 00:30:32;;;;;;;;;5.33;5.33;;;;;26.06;34.66;101718.63;5053108;28;45626;-75
2022/07/15 00:32:58;;;;;;;;;5.00;5.00;;;;;25.93;34.84;101728.19;5054561;28;45697;-73
2022/07/15 00:35:25;;;;;;;;;4.00;4.00;;;;;25.87;34.97;101728.47;5054249;28;45385;-71
2022/07/15 00:37:51;;;;;;;;;6.00;6.00;;;;;25.81;34.94;101735.81;5050953;28;45386;-69
2022/07/15 00:40:18;;;;;;;;;5.67;5.00;;;;;25.82;34.89;101725.97;5054735;28;45649;-74
2022/07/15 00:42:45;;;;;;;;;9.67;6.33;;;;;25.72;35.22;101728.22;5054275;28;45441;-70
2022/07/15 00:45:17;;;;;;;;;10.33;9.33;;;;;25.38;35.72;101726.16;5053848;28;45695;-71
2022/07/15 00:47:56;;;;;;;;;14.67;13.00;;;;;25.31;36.04;101741.66;5052615;28;46195;-68
2022/07/15 00:50:33;;;;;;;;;19.67;13.00;;;;;25.20;36.34;101743.94;5055802;28;45553;-72
2022/07/15 00:53:26;;;;;;;;;17.33;12.00;;;;;25.18;36.45;101751.19;5053551;28;45656;-72
2022/07/15 00:56:02;;;;;;;;;11.00;11.00;;;;;24.95;36.79;101738.72;5055672;28;45688;-75
2022/07/15 00:58:29;;;;;;;;;9.00;8.67;;;;;24.77;36.53;101708.22;5057476;28;45414;-74
2022/07/15 01:00:58;;;;;;;;;12.00;9.67;;;;;24.93;36.91;101738.78;5056556;28;46367;-73
2022/07/15 01:03:26;;;;;;;;;7.33;6.67;;;;;25.07;36.50;101767.69;5053975;28;45836;-72
2022/07/15 01:05:54;;;;;;;;;10.33;10.00;;;;;24.98;36.47;101744.81;5056123;28;46686;-75
2022/07/15 01:08:20;;;;;;;;;9.67;8.00;;;;;24.93;36.45;101748.63;5055571;28;45901;-73
2022/07/15 01:10:49;;;;;;;;;10.33;9.00;;;;;24.64;37.29;101725.75;5057724;28;45504;-73
2022/07/15 01:13:15;;;;;;;;;6.00;6.00;;;;;24.80;37.25;101760.81;5059158;28;45580;-73
2022/07/15 01:15:41;;;;;;;;;10.33;6.67;;;;;24.82;36.84;101761.59;5058978;28;45539;-73
2022/07/15 01:18:06;;;;;;;;;10.33;9.67;;;;;24.89;37.02;101768.44;5055803;28;45248;-74
2022/07/15 01:20:32;;;;;;;;;13.00;9.00;;;;;24.71;37.34;101773.63;5055673;28;46217;-75
2022/07/15 01:23:01;;;;;;;;;11.33;10.00;;;;;24.67;37.56;101779.19;5058560;28;45423;-73
2022/07/15 01:25:28;;;;;;;;;9.00;7.67;;;;;24.64;36.94;101763.25;5058452;28;45484;-72
2022/07/15 01:27:53;;;;;;;;;7.33;6.00;;;;;24.53;37.16;101740.44;5066439;28;45484;-73
2022/07/15 01:30:19;;;;;;;;;8.33;8.33;;;;;24.80;37.10;101783.13;5053570;28;45480;-72
2022/07/15 01:32:54;;;;;;;;;7.67;7.67;;;;;24.58;37.30;101768.84;5056274;28;45595;-74
2022/07/15 01:35:20;;;;;;;;;8.67;8.67;;;;;24.47;37.52;101772.81;5052753;28;45772;-72
2022/07/15 01:37:46;;;;;;;;;11.67;8.00;;;;;24.48;37.36;101779.91;5053897;28;45527;-71
2022/07/15 01:40:12;;;;;;;;;8.00;7.00;;;;;24.39;37.35;101760.63;5056577;28;45406;-73
2022/07/15 01:42:38;;;;;;;;;8.00;7.33;;;;;24.50;37.07;101782.53;5054509;28;45595;-74
2022/07/15 01:45:08;;;;;;;;;5.00;5.00;;;;;24.41;36.65;101770.34;5051733;28;45725;-72
2022/07/15 01:47:41;;;;;;;;;6.00;6.00;;;;;24.22;37.33;101774.69;5054469;28;45473;-74
2022/07/15 01:50:10;;;;;;;;;4.00;4.00;;;;;23.63;37.41;101726.03;5053962;28;46760;-73
2022/07/15 01:52:36;;;;;;;;;4.00;4.00;;;;;23.93;37.45;101779.34;5051904;28;45446;-73
2022/07/15 01:55:04;;;;;;;;;6.33;4.33;;;;;24.00;37.49;101783.53;5053822;28;45496;-72
2022/07/15 01:57:29;;;;;;;;;2.67;2.67;;;;;24.03;37.59;101771.84;5055624;28;45479;-74
2022/07/15 01:59:55;;;;;;;;;6.00;4.33;;;;;24.09;36.89;101767.13;5056940;28;45990;-73
2022/07/15 02:02:20;;;;;;;;;4.00;4.00;;;;;24.00;37.29;101783.53;5053398;28;45383;-74
2022/07/15 02:04:46;;;;;;;;;3.00;3.00;;;;;23.63;37.77;101759.91;5053192;28;45878;-74
2022/07/15 02:07:15;;;;;;;;;4.00;3.67;;;;;23.34;37.71;101723.53;5053921;28;45512;-75
2022/07/15 02:09:41;;;;;;;;;3.33;3.33;;;;;23.50;38.30;101767.50;5053199;28;45545;-74
2022/07/15 02:12:07;;;;;;;;;4.00;3.00;;;;;23.33;38.32;101753.88;5053839;28;45456;-74
2022/07/15 02:14:34;;;;;;;;;5.00;3.33;;;;;23.44;38.08;101773.06;5056999;28;46107;-73
2022/07/15 02:17:03;;;;;;;;;3.67;3.67;;;;;23.52;37.97;101765.66;5053555;28;45410;-75
2022/07/15 02:19:29;;;;;;;;;4.00;3.00;;;;;23.54;37.77;101771.81;5053385;28;45900;-73
2022/07/15 02:21:54;;;;;;;;;3.00;3.00;;;;;23.37;38.16;101771.53;5053718;28;45406;-73
2022/07/15 02:24:20;;;;;;;;;3.00;3.00;;;;;23.24;38.17;101774.63;5053271;28;45389;-74
2022/07/15 02:26:46;;;;;;;;;3.00;2.00;;;;;23.34;37.64;101774.31;5056753;28;45799;-74
2022/07/15 02:29:12;;;;;;;;;3.00;3.00;;;;;23.24;37.73;101763.06;5053785;28;46177;-73
2022/07/15 02:31:38;;;;;;;;;2.33;2.33;;;;;23.48;37.42;101777.38;5053362;28;45552;-72
2022/07/15 02:34:04;;;;;;;;;2.67;2.00;;;;;23.43;37.63;101782.03;5056091;28;45453;-74
2022/07/15 02:36:30;;;;;;;;;3.00;3.00;;;;;23.48;37.65;101772.91;5057269;28;45602;-74
2022/07/15 02:38:56;;;;;;;;;2.33;2.00;;;;;23.49;37.06;101760.41;5053247;28;45452;-73
2022/07/15 02:41:27;;;;;;;;;2.00;2.00;;;;;23.54;37.12;101750.44;5051517;28;45489;-75
2022/07/15 02:43:53;;;;;;;;;3.67;3.33;;;;;23.55;36.98;101768.22;5053636;28;46283;-74
2022/07/15 02:46:18;;;;;;;;;2.33;2.00;;;;;23.42;37.28;101770.47;5053170;28;45508;-73
2022/07/15 02:48:44;;;;;;;;;4.00;4.00;;;;;23.42;37.23;101773.13;5052583;28;46371;-73
2022/07/15 02:51:14;;;;;;;;;5.00;4.00;;;;;23.39;36.99;101764.34;5053089;28;45500;-72
2022/07/15 02:53:43;;;;;;;;;5.00;2.00;;;;;23.60;36.94;101776.06;5056502;28;45507;-74
2022/07/15 02:56:09;;;;;;;;;3.00;2.00;;;;;23.69;36.86;101783.75;5057308;28;45353;-74
2022/07/15 02:58:34;;;;;;;;;2.00;2.00;;;;;23.65;36.84;101766.06;5055693;28;45469;-74
2022/07/15 03:01:00;;;;;;;;;3.67;3.67;;;;;23.55;36.79;101765.53;5054519;28;45299;-74
2022/07/15 03:03:28;;;;;;;;;2.00;2.00;;;;;23.59;36.79;101777.88;5053070;28;45606;-75
2022/07/15 03:05:57;;;;;;;;;3.00;2.00;;;;;23.62;36.86;101784.91;5053213;28;45806;-74
2022/07/15 03:08:26;;;;;;;;;2.33;1.33;;;;;23.53;36.63;101775.41;5052598;28;46290;-74
2022/07/15 03:10:52;;;;;;;;;2.00;2.00;;;;;23.59;36.50;101771.66;5054547;28;45646;-74
2022/07/15 03:13:18;;;;;;;;;2.33;2.00;;;;;23.56;36.72;101759.25;5055605;28;45787;-75
2022/07/15 03:15:47;;;;;;;;;2.00;2.00;;;;;23.61;36.79;101768.00;5053563;28;45580;-70
2022/07/15 03:18:17;;;;;;;;;4.00;2.67;;;;;23.82;36.29;101790.41;5054085;28;46619;-74
2022/07/15 03:20:45;;;;;;;;;2.00;2.00;;;;;23.84;36.83;101791.25;5052926;28;45784;-70
2022/07/15 03:23:11;;;;;;;;;6.67;3.33;;;;;23.74;36.36;101786.31;5052953;28;45463;-74
2022/07/15 03:25:37;;;;;;;;;4.00;4.00;;;;;23.75;36.74;101812.09;5052834;28;45369;-73
2022/07/15 03:28:02;;;;;;;;;3.00;3.00;;;;;23.66;36.26;101786.56;5052422;28;45617;-74
2022/07/15 03:30:29;;;;;;;;;5.33;4.00;;;;;23.76;36.54;101800.50;5053826;28;45595;-74
2022/07/15 03:32:55;;;;;;;;;5.33;5.33;;;;;23.70;36.53;101790.84;5054300;28;45489;-72
2022/07/15 03:35:21;;;;;;;;;4.00;4.00;;;;;23.69;36.52;101798.00;5053993;28;45456;-73
2022/07/15 03:37:47;;;;;;;;;6.00;4.00;;;;;23.60;36.47;101771.59;5053675;28;45527;-72
2022/07/15 03:40:13;;;;;;;;;4.00;4.00;;;;;23.74;36.29;101783.63;5055015;28;45416;-67
2022/07/15 21:03:11;;;;;;;;;8.33;7.67;;;;;23.95;29.02;101584.84;5007584;27;45376;-73
2022/07/15 21:05:36;;;;;;;;;11.33;9.00;;;;;24.47;29.29;101652.31;4996379;27;46106;-74
2022/07/15 21:08:02;;;;;;;;;9.00;7.67;;;;;24.59;29.27;101653.63;4987036;27;45497;-74
2022/07/15 21:10:27;;;;;;;;;8.67;7.00;;;;;24.63;28.93;101639.16;4987193;27;45720;-73
2022/07/15 21:12:53;;;;;;;;;11.00;9.67;;;;;24.84;28.98;101658.78;4987075;27;45970;-74
2022/07/15 21:15:18;;;;;;;;;9.00;8.67;;;;;24.88;28.64;101652.34;4986804;27;45556;-74
2022/07/15 21:17:44;;;;;;;;;8.67;7.00;;;;;25.09;28.33;101668.44;4987051;27;45413;-72
2022/07/15 21:20:10;;;;;;;;;11.67;11.00;;;;;25.13;28.52;101656.66;4987059;27;45465;-75
2022/07/15 21:22:36;;;;;;;;;9.33;7.00;;;;;24.95;28.54;101607.41;4985161;27;46776;-74
2022/07/15 21:27:46;;;;;;;;;7.00;6.00;;;;;24.91;28.39;101587.91;4987137;28;45426;-75
2022/07/15 21:30:12;;;;;;;;;6.00;6.00;;;;;25.35;28.30;101667.31;4987117;28;45407;-74
2022/07/15 21:32:38;;;;;;;;;6.67;5.67;;;;;25.41;28.45;101664.34;4990596;27;45279;-74
2022/07/15 21:35:04;;;;;;;;;4.33;4.33;;;;;25.34;27.99;101647.69;4983491;27;45359;-73
2022/07/15 21:37:29;;;;;;;;;5.00;4.67;;;;;25.54;28.43;101673.59;4975200;27;45532;-73
2022/07/15 21:39:55;;;;;;;;;6.00;5.00;;;;;25.66;28.06;101677.50;4986354;27;45484;-73
2022/07/15 21:42:20;;;;;;;;;5.00;3.00;;;;;25.48;28.12;101628.25;4989708;27;46139;-73
2022/07/15 21:44:47;;;;;;;;;3.00;3.00;;;;;25.28;28.66;101596.16;4991241;27;45326;-73
2022/07/15 21:47:13;;;;;;;;;4.00;3.00;;;;;25.72;28.89;101649.50;4989028;28;45516;-72
2022/07/15 21:49:39;;;;;;;;;4.00;2.67;;;;;25.91;29.03;101684.44;4990719;28;45366;-72
2022/07/15 21:52:05;;;;;;;;;5.00;5.00;;;;;25.69;29.69;101650.53;4988767;27;45479;-73
2022/07/15 21:54:30;;;;;;;;;4.00;4.00;;;;;25.88;29.88;101684.59;4987453;27;45386;-71
2022/07/15 21:56:57;;;;;;;;;3.00;3.00;;;;;25.89;29.55;101697.06;4989652;27;45428;-72
2022/07/15 21:59:26;;;;;;;;;3.00;3.00;;;;;25.76;29.93;101665.41;4991616;27;45429;-71
2022/07/15 22:01:52;;;;;;;;;4.00;4.00;;;;;25.92;30.45;101692.44;5000392;27;45656;-72
2022/07/15 22:04:18;;;;;;;;;3.00;3.00;;;;;25.82;30.25;101675.00;5008265;27;45702;-72
2022/07/15 22:06:43;;;;;;;;;4.00;4.00;;;;;25.48;30.88;101636.31;5006775;27;45386;-71
2022/07/15 22:09:09;;;;;;;;;3.00;2.00;;;;;25.42;30.58;101608.91;5006928;27;45583;-74
2022/07/15 22:11:36;;;;;;;;;5.00;4.00;;;;;25.59;30.88;101638.50;5010229;27;46562;-75
2022/07/15 22:14:02;;;;;;;;;2.67;2.67;;;;;25.83;30.61;101698.19;4996686;27;45607;-73
2022/07/15 22:16:29;;;;;;;;;3.00;3.00;;;;;25.66;31.32;101704.34;4995548;27;45487;-75
2022/07/15 22:18:55;;;;;;;;;4.00;4.00;;;;;25.44;31.21;101666.91;4998003;27;45300;-74
2022/07/15 22:21:24;;;;;;;;;3.00;3.00;;;;;25.54;31.32;101692.34;4994684;27;46411;-74
2022/07/15 22:23:50;;;;;;;;;3.00;3.00;;;;;25.68;31.48;101713.19;4994691;27;45507;-73
2022/07/15 22:26:17;;;;;;;;;4.75;2.25;;;;;25.71;31.67;101720.22;5002867;27;45596;-71
2022/07/15 22:28:44;;;;;;;;;3.67;3.67;;;;;25.73;31.36;101713.84;4998115;27;45613;-75
2022/07/15 22:31:11;;;;;;;;;3.00;3.00;;;;;25.77;31.40;101711.91;5066736;27;46549;-73
2022/07/15 22:33:38;;;;;;;;;5.00;4.33;;;;;25.64;32.07;101725.00;4995916;27;45291;-75
2022/07/15 22:36:07;;;;;;;;;5.00;5.00;;;;;25.63;32.03;101720.59;4980342;27;45546;-75
2022/07/15 22:38:33;;;;;;;;;6.00;6.00;;;;;24.97;31.96;101649.28;4997449;27;45219;-76
2022/07/15 22:40:59;;;;;;;;;6.67;5.00;;;;;25.33;32.82;101707.59;4976584;28;47643;-74
2022/07/15 22:43:24;;;;;;;;;4.33;4.33;;;;;25.26;33.05;101726.72;4993799;27;45295;-74
2022/07/15 22:45:57;;;;;;;;;7.00;5.33;;;;;25.18;33.17;101740.47;4993350;27;45371;-72
2022/07/15 22:48:23;;;;;;;;;3.33;3.00;;;;;25.06;33.94;101747.19;4994093;27;45592;-75
2022/07/15 22:50:49;;;;;;;;;4.00;4.00;;;;;24.49;33.53;101663.84;4975586;27;45739;-75
2022/07/15 22:53:15;;;;;;;;;4.00;4.00;;;;;24.92;33.42;101744.22;4979988;27;45399;-74
2022/07/15 22:55:40;;;;;;;;;4.33;4.33;;;;;24.57;34.05;101719.75;4994178;27;45458;-76
2022/07/15 22:58:06;;;;;;;;;3.00;3.00;;;;;24.13;34.17;101652.78;4997815;27;45285;-76
2022/07/15 23:00:32;;;;;;;;;5.00;3.67;;;;;24.70;34.04;101739.75;4995177;27;45549;-74
2022/07/15 23:02:58;;;;;;;;;5.33;4.00;;;;;24.48;34.36;101704.06;5034074;27;45579;-73
2022/07/15 23:05:24;;;;;;;;;4.67;4.67;;;;;24.72;34.21;101737.88;5010507;27;45384;-75
2022/07/15 23:07:50;;;;;;;;;4.00;4.00;;;;;24.41;34.50;101705.22;4992330;27;45539;-76
2022/07/15 23:10:15;;;;;;;;;4.00;4.00;;;;;24.62;34.33;101743.69;4999063;27;46592;-72
2022/07/15 23:12:41;;;;;;;;;3.00;3.00;;;;;24.64;34.18;101726.59;5006271;27;46203;-73
2022/07/15 23:15:08;;;;;;;;;3.00;2.67;;;;;24.71;33.61;101714.69;5040530;27;45549;-71
2022/07/15 23:17:34;;;;;;;;;3.67;2.00;;;;;24.96;33.18;101746.72;5026259;27;45449;-74
2022/07/15 23:20:00;;;;;;;;;4.33;4.00;;;;;25.05;33.13;101744.56;5001720;27;45575;-72
2022/07/15 23:22:25;;;;;;;;;3.00;3.00;;;;;24.86;32.82;101698.91;4982879;27;45668;-74
2022/07/15 23:24:51;;;;;;;;;4.00;2.67;;;;;25.07;32.88;101732.84;4992327;27;45504;-71
2022/07/15 23:27:18;;;;;;;;;2.33;2.00;;;;;25.12;32.80;101736.19;4993904;27;45351;-74
2022/07/15 23:29:43;;;;;;;;;3.00;3.00;;;;;24.95;32.58;101704.75;4994777;27;45451;-73
2022/07/15 23:32:09;;;;;;;;;3.00;3.00;;;;;24.96;32.64;101698.47;4993613;27;45452;-75
2022/07/15 23:34:35;;;;;;;;;3.33;3.00;;;;;25.31;32.99;101751.50;4999288;27;45447;-75
2022/07/15 23:37:02;;;;;;;;;5.00;5.00;;;;;25.33;33.09;101749.63;4993236;27;45361;-74
2022/07/15 23:39:28;;;;;;;;;4.67;4.67;;;;;25.20;32.62;101722.50;4992570;27;46112;-76
2022/07/15 23:41:54;;;;;;;;;8.67;6.00;;;;;25.38;32.49;101740.44;4978126;27;45373;-75
2022/07/15 23:44:20;;;;;;;;;9.33;6.33;;;;;25.05;32.73;101680.25;4994481;27;45394;-74
2022/07/15 23:46:45;;;;;;;;;6.00;4.00;;;;;25.43;32.59;101742.06;4992370;27;45386;-75
2022/07/15 23:49:11;;;;;;;;;7.33;6.00;;;;;25.29;32.54;101710.47;4986459;27;45469;-73
2022/07/15 23:51:37;;;;;;;;;8.00;4.33;;;;;25.36;32.61;101726.22;4991727;27;45648;-74
2022/07/15 23:54:03;;;;;;;;;6.33;5.33;;;;;25.02;32.56;101675.03;5038381;27;45638;-72
2022/07/15 23:56:28;;;;;;;;;5.33;5.33;;;;;25.00;32.63;101663.50;5015513;27;45808;-73
2022/07/15 23:58:54;;;;;;;;;5.67;5.67;;;;;25.35;32.46;101721.81;4987161;28;45486;-74
